createdAt,value
2023-05-14T00:00:41.778Z,995.00
2023-05-14T00:01:41.813Z,992.00
2023-05-14T00:02:41.943Z,992.00
2023-05-14T00:03:41.973Z,993.00
2023-05-14T00:04:41.966Z,994.00
2023-05-14T00:05:41.973Z,996.00
2023-05-14T00:06:42.003Z,997.00
2023-05-14T00:07:42.050Z,995.00
2023-05-14T00:08:42.094Z,994.00
2023-05-14T00:09:42.133Z,992.00
2023-05-14T00:10:42.173Z,990.00
2023-05-14T00:11:42.220Z,990.00
2023-05-14T00:12:42.274Z,986.00
2023-05-14T00:13:42.294Z,987.00
2023-05-14T00:14:42.335Z,989.00
2023-05-14T00:15:42.427Z,984.00
2023-05-14T00:16:42.418Z,981.00
2023-05-14T00:17:42.623Z,978.00
2023-05-14T00:18:42.540Z,978.00
2023-05-14T00:19:43.440Z,981.00
2023-05-14T00:20:42.590Z,980.00
2023-05-14T00:21:42.649Z,976.00
2023-05-14T00:22:42.687Z,974.00
2023-05-14T00:23:42.728Z,974.00
2023-05-14T00:24:42.763Z,975.00
2023-05-14T00:25:42.807Z,973.00
2023-05-14T00:26:42.863Z,970.00
2023-05-14T00:27:42.909Z,972.00
2023-05-14T00:28:42.948Z,974.00
2023-05-14T00:29:43.014Z,973.00
2023-05-14T00:30:43.045Z,977.00
2023-05-14T00:31:43.136Z,978.00
2023-05-14T00:32:43.195Z,978.00
2023-05-14T00:33:43.195Z,980.00
2023-05-14T00:34:43.236Z,978.00
2023-05-14T00:35:43.341Z,979.00
2023-05-14T00:36:43.350Z,978.00
2023-05-14T00:37:43.368Z,977.00
2023-05-14T00:38:43.447Z,978.00
2023-05-14T00:39:43.454Z,979.00
2023-05-14T00:40:43.970Z,976.00
2023-05-14T00:41:43.566Z,973.00
2023-05-14T00:42:43.626Z,973.00
2023-05-14T00:43:43.646Z,972.00
2023-05-14T00:44:43.709Z,970.00
2023-05-14T00:45:43.823Z,972.00
2023-05-14T00:47:56.725Z,974.00
2023-05-14T00:48:56.835Z,972.00
2023-05-14T00:49:56.746Z,970.00
2023-05-14T00:50:56.681Z,971.00
2023-05-14T00:51:56.758Z,971.00
2023-05-14T00:52:56.688Z,969.00
2023-05-14T00:53:56.708Z,969.00
2023-05-14T00:54:56.696Z,964.00
2023-05-14T00:55:56.832Z,965.00
2023-05-14T00:56:57.328Z,965.00
2023-05-14T00:57:56.710Z,962.00
2023-05-14T00:58:56.712Z,963.00
2023-05-14T00:59:56.715Z,964.00
2023-05-14T01:00:56.788Z,964.00
2023-05-14T01:01:56.704Z,961.00
2023-05-14T01:02:56.870Z,961.00
2023-05-14T01:03:56.811Z,962.00
2023-05-14T01:04:56.725Z,964.00
2023-05-14T01:05:56.721Z,965.00
2023-05-14T01:06:56.711Z,967.00
2023-05-14T01:07:56.696Z,965.00
2023-05-14T01:08:56.694Z,964.00
2023-05-14T01:09:56.840Z,965.00
2023-05-14T01:10:56.696Z,967.00
2023-05-14T01:11:56.687Z,965.00
2023-05-14T01:12:56.690Z,964.00
2023-05-14T01:13:56.690Z,963.00
2023-05-14T01:14:56.683Z,965.00
2023-05-14T01:15:56.679Z,967.00
2023-05-14T01:16:56.746Z,965.00
2023-05-14T01:17:56.701Z,965.00
2023-05-14T01:18:56.836Z,965.00
2023-05-14T01:19:56.683Z,964.00
2023-05-14T01:20:56.672Z,962.00
2023-05-14T01:21:56.677Z,960.00
2023-05-14T01:22:56.681Z,960.00
2023-05-14T01:23:56.766Z,960.00
2023-05-14T01:24:56.698Z,963.00
2023-05-14T01:25:56.691Z,965.00
2023-05-14T01:26:56.690Z,961.00
2023-05-14T01:27:56.695Z,962.00
2023-05-14T01:28:56.706Z,963.00
2023-05-14T01:29:56.709Z,961.00
2023-05-14T01:30:56.724Z,963.00
2023-05-14T01:31:56.807Z,959.00
2023-05-14T01:32:56.885Z,953.00
2023-05-14T01:33:56.885Z,955.00
2023-05-14T01:34:56.950Z,957.00
2023-05-14T01:35:57.002Z,958.00
2023-05-14T01:36:57.068Z,958.00
2023-05-14T01:37:57.121Z,962.00
2023-05-14T01:38:57.167Z,962.00
2023-05-14T01:39:57.223Z,963.00
2023-05-14T01:40:57.278Z,967.00
2023-05-14T01:41:57.341Z,968.00
2023-05-14T01:42:57.424Z,964.00
2023-05-14T01:43:57.434Z,962.00
2023-05-14T01:44:57.493Z,962.00
2023-05-14T01:45:57.570Z,961.00
2023-05-14T01:46:57.591Z,962.00
2023-05-14T01:47:57.702Z,960.00
2023-05-14T01:48:57.707Z,960.00
2023-05-14T01:49:57.776Z,963.00
2023-05-14T01:50:57.821Z,965.00
2023-05-14T01:51:57.870Z,964.00
2023-05-14T01:52:57.932Z,960.00
2023-05-14T01:53:57.979Z,961.00
2023-05-14T01:54:58.032Z,960.00
2023-05-14T01:55:58.100Z,959.00
2023-05-14T01:56:58.148Z,958.00
2023-05-14T01:57:58.237Z,960.00
2023-05-14T01:58:58.331Z,958.00
2023-05-14T01:59:58.305Z,961.00
2023-05-14T02:00:58.396Z,961.00
2023-05-14T02:01:58.518Z,962.00
2023-05-14T02:02:58.584Z,960.00
2023-05-14T02:03:58.664Z,957.00
2023-05-14T02:04:58.652Z,955.00
2023-05-14T02:05:58.650Z,954.00
2023-05-14T02:06:58.712Z,953.00
2023-05-14T02:07:58.762Z,955.00
2023-05-14T02:08:58.830Z,952.00
2023-05-14T02:09:58.888Z,948.00
2023-05-14T02:10:58.943Z,950.00
2023-05-14T02:11:58.982Z,950.00
2023-05-14T02:12:59.052Z,953.00
2023-05-14T02:13:59.128Z,955.00
2023-05-14T02:14:59.857Z,954.00
2023-05-14T02:15:59.240Z,952.00
2023-05-14T02:16:59.266Z,947.00
2023-05-14T02:17:59.377Z,945.00
2023-05-14T02:18:59.400Z,949.00
2023-05-14T02:19:59.420Z,947.00
2023-05-14T02:20:59.497Z,949.00
2023-05-14T02:21:59.547Z,947.00
2023-05-14T02:22:59.588Z,949.00
2023-05-14T02:23:59.643Z,948.00
2023-05-14T02:24:59.711Z,947.00
2023-05-14T02:25:59.866Z,946.00
2023-05-14T02:26:59.843Z,944.00
2023-05-14T02:27:59.876Z,942.00
2023-05-14T02:28:59.938Z,941.00
2023-05-14T02:30:00.182Z,940.00
2023-05-14T02:31:00.091Z,941.00
2023-05-14T02:32:00.233Z,941.00
2023-05-14T02:33:00.272Z,945.00
2023-05-14T02:34:00.219Z,943.00
2023-05-14T02:35:00.277Z,941.00
2023-05-14T02:36:00.350Z,942.00
2023-05-14T02:37:00.391Z,940.00
2023-05-14T02:38:00.537Z,940.00
2023-05-14T02:39:00.528Z,941.00
2023-05-14T02:40:00.588Z,942.00
2023-05-14T02:41:00.651Z,942.00
2023-05-14T02:42:00.724Z,942.00
2023-05-14T02:43:00.790Z,938.00
2023-05-14T02:44:00.838Z,936.00
2023-05-14T02:45:01.120Z,939.00
2023-05-14T02:46:00.983Z,940.00
2023-05-14T02:47:01.131Z,939.00
2023-05-14T02:48:01.143Z,935.00
2023-05-14T02:49:01.180Z,938.00
2023-05-14T02:50:01.269Z,938.00
2023-05-14T02:51:01.330Z,939.00
2023-05-14T02:52:01.392Z,938.00
2023-05-14T02:53:01.453Z,939.00
2023-05-14T02:54:01.513Z,938.00
2023-05-14T02:55:01.590Z,940.00
2023-05-14T02:56:01.658Z,942.00
2023-05-14T02:57:01.725Z,943.00
2023-05-14T02:58:01.801Z,942.00
2023-05-14T02:59:01.879Z,940.00
2023-05-14T03:00:01.919Z,941.00
2023-05-14T03:01:02.090Z,943.00
2023-05-14T03:02:02.155Z,941.00
2023-05-14T03:03:02.188Z,937.00
2023-05-14T03:04:02.200Z,933.00
2023-05-14T03:05:02.266Z,934.00
2023-05-14T03:06:02.345Z,935.00
2023-05-14T03:07:02.409Z,932.00
2023-05-14T03:08:02.515Z,933.00
2023-05-14T03:09:02.552Z,930.00
2023-05-14T03:10:02.630Z,929.00
2023-05-14T03:11:02.698Z,931.00
2023-05-14T03:12:02.770Z,929.00
2023-05-14T03:13:02.897Z,930.00
2023-05-14T03:14:02.905Z,932.00
2023-05-14T03:15:02.986Z,934.00
2023-05-14T03:16:03.057Z,933.00
2023-05-14T03:17:03.156Z,932.00
2023-05-14T03:18:03.261Z,932.00
2023-05-14T03:19:04.030Z,931.00
2023-05-14T03:20:03.338Z,931.00
2023-05-14T03:21:03.425Z,929.00
2023-05-14T03:22:03.481Z,931.00
2023-05-14T03:23:03.561Z,928.00
2023-05-14T03:24:03.632Z,927.00
2023-05-14T03:25:03.695Z,931.00
2023-05-14T03:26:03.824Z,927.00
2023-05-14T03:27:04.388Z,928.00
2023-05-14T03:28:03.941Z,926.00
2023-05-14T03:29:03.982Z,926.00
2023-05-14T03:30:04.061Z,927.00
2023-05-14T03:31:04.238Z,926.00
2023-05-14T03:32:04.210Z,925.00
2023-05-14T03:33:04.323Z,925.00
2023-05-14T03:34:04.367Z,925.00
2023-05-14T03:35:04.433Z,927.00
2023-05-14T03:36:04.518Z,930.00
2023-05-14T03:37:04.596Z,931.00
2023-05-14T03:38:04.669Z,934.00
2023-05-14T03:39:04.733Z,932.00
2023-05-14T03:40:04.801Z,931.00
2023-05-14T03:41:04.872Z,927.00
2023-05-14T03:42:04.950Z,925.00
2023-05-14T03:43:05.047Z,927.00
2023-05-14T03:44:05.090Z,928.00
2023-05-14T03:45:05.279Z,929.00
2023-05-14T03:46:05.240Z,928.00
2023-05-14T03:47:05.402Z,926.00
2023-05-14T03:48:05.469Z,924.00
2023-05-14T03:49:05.545Z,925.00
2023-05-14T03:50:05.524Z,924.00
2023-05-14T03:51:05.615Z,924.00
2023-05-14T03:52:05.660Z,926.00
2023-05-14T03:53:05.748Z,925.00
2023-05-14T03:54:05.830Z,925.00
2023-05-14T03:55:05.899Z,924.00
2023-05-14T03:56:05.996Z,922.00
2023-05-14T03:57:06.063Z,919.00
2023-05-14T03:58:06.125Z,919.00
2023-05-14T03:59:06.325Z,923.00
2023-05-14T04:00:06.289Z,924.00
2023-05-14T04:01:06.381Z,923.00
2023-05-14T04:02:06.441Z,922.00
2023-05-14T04:03:06.638Z,924.00
2023-05-14T04:04:06.688Z,924.00
2023-05-14T04:05:06.674Z,924.00
2023-05-14T04:06:06.746Z,920.00
2023-05-14T04:07:06.903Z,921.00
2023-05-14T04:08:06.902Z,921.00
2023-05-14T04:09:07.898Z,920.00
2023-05-14T04:10:07.050Z,917.00
2023-05-14T04:11:07.110Z,919.00
2023-05-14T04:12:07.241Z,918.00
2023-05-14T04:13:07.246Z,919.00
2023-05-14T04:14:07.356Z,920.00
2023-05-14T04:15:07.416Z,919.00
2023-05-14T04:16:07.492Z,916.00
2023-05-14T04:17:08.401Z,914.00
2023-05-14T04:18:07.619Z,912.00
2023-05-14T04:19:07.815Z,913.00
2023-05-14T04:20:07.653Z,913.00
2023-05-14T04:21:07.717Z,914.00
2023-05-14T04:22:07.760Z,916.00
2023-05-14T04:23:07.832Z,918.00
2023-05-14T04:24:07.919Z,918.00
2023-05-14T04:25:07.989Z,916.00
2023-05-14T04:26:08.071Z,913.00
2023-05-14T04:27:08.126Z,913.00
2023-05-14T04:28:08.178Z,913.00
2023-05-14T04:29:08.230Z,909.00
2023-05-14T04:30:08.285Z,909.00
2023-05-14T04:31:08.329Z,907.00
2023-05-14T04:32:08.415Z,904.00
2023-05-14T04:33:08.489Z,905.00
2023-05-14T04:34:08.523Z,908.00
2023-05-14T04:35:08.604Z,910.00
2023-05-14T04:36:08.675Z,908.00
2023-05-14T04:37:08.738Z,908.00
2023-05-14T04:38:08.801Z,905.00
2023-05-14T04:39:08.911Z,905.00
2023-05-14T04:40:08.992Z,908.00
2023-05-14T04:41:09.002Z,904.00
2023-05-14T04:42:09.070Z,904.00
2023-05-14T04:43:09.151Z,900.00
2023-05-14T04:44:09.235Z,898.00
2023-05-14T04:45:09.274Z,897.00
2023-05-14T04:46:09.397Z,899.00
2023-05-14T04:47:09.424Z,901.00
2023-05-14T04:48:09.557Z,900.00
2023-05-14T04:49:09.551Z,900.00
2023-05-14T04:50:09.645Z,898.00
2023-05-14T04:51:09.720Z,901.00
2023-05-14T04:52:09.792Z,903.00
2023-05-14T04:53:09.925Z,903.00
2023-05-14T04:54:09.962Z,903.00
2023-05-14T04:55:09.997Z,905.00
2023-05-14T04:56:10.047Z,904.00
2023-05-14T04:57:10.104Z,903.00
2023-05-14T04:58:10.167Z,902.00
2023-05-14T04:59:10.252Z,903.00
2023-05-14T05:00:10.291Z,901.00
2023-05-14T05:01:10.374Z,902.00
2023-05-14T05:02:10.434Z,899.00
2023-05-14T05:03:10.551Z,899.00
2023-05-14T05:04:10.684Z,901.00
2023-05-14T05:05:10.622Z,904.00
2023-05-14T05:06:10.633Z,903.00
2023-05-14T05:07:10.686Z,904.00
2023-05-14T05:08:10.746Z,902.00
2023-05-14T05:09:10.761Z,899.00
2023-05-14T05:10:10.836Z,898.00
2023-05-14T05:11:10.883Z,897.00
2023-05-14T05:12:10.929Z,896.00
2023-05-14T05:13:10.963Z,898.00
2023-05-14T05:14:11.019Z,899.00
2023-05-14T05:15:11.106Z,898.00
2023-05-14T05:16:11.139Z,900.00
2023-05-14T05:17:11.121Z,903.00
2023-05-14T05:18:11.226Z,904.00
2023-05-14T05:19:11.294Z,904.00
2023-05-14T05:20:11.286Z,904.00
2023-05-14T05:21:11.335Z,905.00
2023-05-14T05:22:11.397Z,902.00
2023-05-14T05:23:11.459Z,902.00
2023-05-14T05:24:11.516Z,905.00
2023-05-14T05:25:11.565Z,902.00
2023-05-14T05:26:11.637Z,900.00
2023-05-14T05:27:11.682Z,900.00
2023-05-14T05:28:11.728Z,902.00
2023-05-14T05:29:11.773Z,900.00
2023-05-14T05:30:11.823Z,899.00
2023-05-14T05:31:11.912Z,902.00
2023-05-14T05:32:11.896Z,900.00
2023-05-14T05:33:12.440Z,900.00
2023-05-14T05:34:12.063Z,901.00
2023-05-14T05:35:12.048Z,901.00
2023-05-14T05:36:12.084Z,902.00
2023-05-14T05:37:12.136Z,904.00
2023-05-14T05:38:12.190Z,902.00
2023-05-14T05:39:12.221Z,903.00
2023-05-14T05:40:12.265Z,899.00
2023-05-14T05:41:12.320Z,895.00
2023-05-14T05:42:12.374Z,895.00
2023-05-14T05:43:12.432Z,894.00
2023-05-14T05:44:12.548Z,897.00
2023-05-14T05:45:12.506Z,897.00
2023-05-14T05:46:12.588Z,897.00
2023-05-14T05:47:12.683Z,901.00
2023-05-14T05:48:12.697Z,901.00
2023-05-14T05:49:12.654Z,900.00
2023-05-14T05:50:12.733Z,899.00
2023-05-14T05:51:12.771Z,903.00
2023-05-14T05:52:12.811Z,904.00
2023-05-14T05:53:13.443Z,904.00
2023-05-14T05:54:12.953Z,904.00
2023-05-14T05:55:13.022Z,902.00
2023-05-14T05:56:13.454Z,901.00
2023-05-14T05:57:13.132Z,900.00
2023-05-14T05:58:13.943Z,903.00
2023-05-14T05:59:13.218Z,903.00
2023-05-14T06:00:13.305Z,902.00
2023-05-14T06:01:13.326Z,900.00
2023-05-14T06:02:13.399Z,898.00
2023-05-14T06:03:13.428Z,900.00
2023-05-14T06:04:13.453Z,900.00
2023-05-14T06:05:13.532Z,899.00
2023-05-14T06:06:13.565Z,898.00
2023-05-14T06:07:13.617Z,898.00
2023-05-14T06:08:13.699Z,899.00
2023-05-14T06:09:13.757Z,897.00
2023-05-14T06:10:13.853Z,897.00
2023-05-14T06:11:13.926Z,893.00
2023-05-14T06:12:14.022Z,894.00
2023-05-14T06:13:14.097Z,892.00
2023-05-14T06:14:14.156Z,889.00
2023-05-14T06:15:14.262Z,889.00
2023-05-14T06:16:14.456Z,891.00
2023-05-14T06:17:14.382Z,892.00
2023-05-14T06:18:14.474Z,893.00
2023-05-14T06:19:14.616Z,893.00
2023-05-14T06:20:14.624Z,887.00
2023-05-14T06:21:14.715Z,890.00
2023-05-14T06:22:14.783Z,895.00
2023-05-14T06:23:14.937Z,893.00
2023-05-14T06:24:14.939Z,891.00
2023-05-14T06:25:15.011Z,891.00
2023-05-14T06:26:15.473Z,891.00
2023-05-14T06:27:15.189Z,888.00
2023-05-14T06:28:15.255Z,889.00
2023-05-14T06:29:15.341Z,888.00
2023-05-14T06:30:15.421Z,886.00
2023-05-14T06:31:15.512Z,886.00
2023-05-14T06:32:15.811Z,891.00
2023-05-14T06:33:15.754Z,889.00
2023-05-14T06:34:15.768Z,888.00
2023-05-14T06:35:15.823Z,890.00
2023-05-14T06:36:15.906Z,891.00
2023-05-14T06:37:15.973Z,891.00
2023-05-14T06:38:16.046Z,887.00
2023-05-14T06:39:16.160Z,881.00
2023-05-14T06:40:16.959Z,883.00
2023-05-14T06:41:16.244Z,885.00
2023-05-14T06:42:16.305Z,886.00
2023-05-14T06:43:16.371Z,884.00
2023-05-14T06:44:16.452Z,886.00
2023-05-14T06:45:16.507Z,886.00
2023-05-14T06:46:16.602Z,883.00
2023-05-14T06:47:16.662Z,878.00
2023-05-14T06:48:16.816Z,876.00
2023-05-14T06:49:16.960Z,877.00
2023-05-14T06:50:16.915Z,875.00
2023-05-14T06:51:16.915Z,877.00
2023-05-14T06:52:16.973Z,878.00
2023-05-14T06:53:17.049Z,872.00
2023-05-14T06:54:17.077Z,872.00
2023-05-14T06:55:17.115Z,873.00
2023-05-14T06:56:17.195Z,872.00
2023-05-14T06:57:17.249Z,871.00
2023-05-14T06:58:17.306Z,872.00
2023-05-14T06:59:17.467Z,875.00
2023-05-14T07:00:17.463Z,874.00
2023-05-14T07:01:17.603Z,875.00
2023-05-14T07:02:17.611Z,874.00
2023-05-14T07:03:17.649Z,876.00
2023-05-14T07:04:17.726Z,879.00
2023-05-14T07:05:17.770Z,877.00
2023-05-14T07:06:17.794Z,874.00
2023-05-14T07:07:17.920Z,872.00
2023-05-14T07:08:17.854Z,869.00
2023-05-14T07:09:17.888Z,867.00
2023-05-14T07:10:17.921Z,865.00
2023-05-14T07:11:18.013Z,866.00
2023-05-14T07:12:17.980Z,867.00
2023-05-14T07:13:18.049Z,868.00
2023-05-14T07:14:18.101Z,866.00
2023-05-14T07:15:18.152Z,865.00
2023-05-14T07:16:18.219Z,866.00
2023-05-14T07:17:18.351Z,867.00
2023-05-14T07:18:18.344Z,867.00
2023-05-14T07:19:18.418Z,867.00
2023-05-14T07:20:18.440Z,869.00
2023-05-14T07:21:18.488Z,870.00
2023-05-14T07:22:18.562Z,871.00
2023-05-14T07:23:20.003Z,872.00
2023-05-14T07:24:18.669Z,872.00
2023-05-14T07:25:18.727Z,870.00
2023-05-14T07:26:18.809Z,869.00
2023-05-14T07:27:18.889Z,868.00
2023-05-14T07:28:18.931Z,868.00
2023-05-14T07:29:18.964Z,869.00
2023-05-14T07:30:19.035Z,871.00
2023-05-14T07:31:19.185Z,869.00
2023-05-14T07:32:19.170Z,872.00
2023-05-14T07:33:19.231Z,872.00
2023-05-14T07:34:19.970Z,873.00
2023-05-14T07:35:19.444Z,873.00
2023-05-14T07:36:19.454Z,872.00
2023-05-14T07:37:20.289Z,873.00
2023-05-14T07:38:19.595Z,872.00
2023-05-14T07:39:19.673Z,874.00
2023-05-14T07:40:19.761Z,872.00
2023-05-14T07:41:19.855Z,872.00
2023-05-14T07:42:34.308Z,871.00
2023-05-14T07:43:20.948Z,871.00
2023-05-14T07:44:20.010Z,871.00
2023-05-14T07:45:19.955Z,866.00
2023-05-14T07:46:19.996Z,867.00
2023-05-14T07:47:20.030Z,866.00
2023-05-14T07:48:20.058Z,864.00
2023-05-14T07:49:21.010Z,864.00
2023-05-14T07:50:21.031Z,868.00
2023-05-14T07:51:20.106Z,870.00
2023-05-14T07:52:20.494Z,873.00
2023-05-14T07:53:20.238Z,869.00
2023-05-14T07:54:20.325Z,867.00
2023-05-14T07:55:20.408Z,869.00
2023-05-14T07:56:20.483Z,868.00
2023-05-14T07:57:20.572Z,867.00
2023-05-14T07:58:20.642Z,868.00
2023-05-14T07:59:20.722Z,869.00
2023-05-14T08:00:20.856Z,869.00
2023-05-14T08:01:20.862Z,869.00
2023-05-14T08:02:21.034Z,872.00
2023-05-14T08:03:21.155Z,872.00
2023-05-14T08:04:21.132Z,872.00
2023-05-14T08:05:21.155Z,872.00
2023-05-14T08:06:21.230Z,870.00
2023-05-14T08:07:21.303Z,870.00
2023-05-14T08:08:21.366Z,869.00
2023-05-14T08:09:21.435Z,868.00
2023-05-14T08:10:21.666Z,868.00
2023-05-14T08:11:21.662Z,866.00
2023-05-14T08:12:21.635Z,868.00
2023-05-14T08:13:21.705Z,871.00
2023-05-14T08:14:21.786Z,874.00
2023-05-14T08:15:21.853Z,871.00
2023-05-14T08:16:21.959Z,867.00
2023-05-14T08:17:22.068Z,866.00
2023-05-14T08:18:22.038Z,868.00
2023-05-14T08:19:22.201Z,866.00
2023-05-14T08:20:22.361Z,867.00
2023-05-14T08:21:22.230Z,865.00
2023-05-14T08:22:22.429Z,865.00
2023-05-14T08:23:22.416Z,863.00
2023-05-14T08:24:22.466Z,859.00
2023-05-14T08:25:22.487Z,861.00
2023-05-14T08:26:22.543Z,861.00
2023-05-14T08:27:22.625Z,861.00
2023-05-14T08:28:22.666Z,860.00
2023-05-14T08:29:22.732Z,861.00
2023-05-14T08:30:23.236Z,861.00
2023-05-14T08:31:22.953Z,862.00
2023-05-14T08:32:24.195Z,858.00
2023-05-14T08:33:22.961Z,854.00
2023-05-14T08:34:23.027Z,854.00
2023-05-14T08:35:23.076Z,854.00
2023-05-14T08:36:23.128Z,857.00
2023-05-14T08:37:23.201Z,858.00
2023-05-14T08:38:23.245Z,860.00
2023-05-14T08:39:23.314Z,856.00
2023-05-14T08:40:23.648Z,857.00
2023-05-14T08:41:23.417Z,858.00
2023-05-14T08:42:23.478Z,857.00
2023-05-14T08:43:23.518Z,860.00
2023-05-14T08:44:23.575Z,861.00
2023-05-14T08:45:23.627Z,864.00
2023-05-14T08:46:23.693Z,864.00
2023-05-14T08:47:23.869Z,866.00
2023-05-14T08:48:23.898Z,864.00
2023-05-14T08:49:23.862Z,864.00
2023-05-14T08:50:23.971Z,863.00
2023-05-14T08:51:23.954Z,861.00
2023-05-14T08:52:23.998Z,862.00
2023-05-14T08:53:24.071Z,861.00
2023-05-14T08:54:24.110Z,862.00
2023-05-14T08:55:24.163Z,862.00
2023-05-14T08:56:24.216Z,860.00
2023-05-14T08:57:24.287Z,859.00
2023-05-14T08:58:24.362Z,859.00
2023-05-14T08:59:24.378Z,858.00
2023-05-14T09:00:24.695Z,858.00
2023-05-14T09:01:24.602Z,857.00
2023-05-14T09:02:25.543Z,861.00
2023-05-14T09:03:25.488Z,861.00
2023-05-14T09:04:24.620Z,861.00
2023-05-14T09:05:24.666Z,860.00
2023-05-14T09:06:24.711Z,859.00
2023-05-14T09:07:24.774Z,860.00
2023-05-14T09:08:24.804Z,858.00
2023-05-14T09:09:25.519Z,858.00
2023-05-14T09:10:25.121Z,859.00
2023-05-14T09:11:24.967Z,857.00
2023-05-14T09:12:25.194Z,856.00
2023-05-14T09:13:26.941Z,859.00
2023-05-14T09:14:25.072Z,858.00
2023-05-14T09:15:25.067Z,860.00
2023-05-14T09:16:25.123Z,859.00
2023-05-14T09:17:25.138Z,859.00
2023-05-14T09:18:25.285Z,859.00
2023-05-14T09:19:25.085Z,860.00
2023-05-14T09:20:25.434Z,861.00
2023-05-14T09:21:25.054Z,859.00
2023-05-14T09:22:25.065Z,858.00
2023-05-14T09:23:25.055Z,856.00
2023-05-14T09:24:25.066Z,856.00
2023-05-14T09:25:25.065Z,857.00
2023-05-14T09:26:25.060Z,858.00
2023-05-14T09:27:25.074Z,857.00
2023-05-14T09:28:25.061Z,857.00
2023-05-14T09:29:25.062Z,857.00
2023-05-14T09:30:25.295Z,855.00
2023-05-14T09:31:25.127Z,852.00
2023-05-14T09:32:25.177Z,855.00
2023-05-14T09:33:25.085Z,852.00
2023-05-14T09:34:25.089Z,851.00
2023-05-14T09:35:25.126Z,849.00
2023-05-14T09:36:25.089Z,850.00
2023-05-14T09:37:25.083Z,848.00
2023-05-14T09:38:25.068Z,849.00
2023-05-14T09:39:25.069Z,847.00
2023-05-14T09:40:25.407Z,848.00
2023-05-14T09:41:25.056Z,846.00
2023-05-14T09:42:25.064Z,844.00
2023-05-14T09:43:25.167Z,843.00
2023-05-14T09:44:25.091Z,843.00
2023-05-14T09:45:25.059Z,842.00
2023-05-14T09:46:25.056Z,844.00
2023-05-14T09:47:25.610Z,845.00
2023-05-14T09:48:25.101Z,846.00
2023-05-14T09:49:25.022Z,845.00
2023-05-14T09:50:25.286Z,845.00
2023-05-14T09:51:25.010Z,843.00
2023-05-14T09:52:25.021Z,840.00
2023-05-14T09:53:25.019Z,838.00
2023-05-14T09:54:25.038Z,836.00
2023-05-14T09:55:25.141Z,835.00
2023-05-14T09:56:25.143Z,838.00
2023-05-14T09:57:25.175Z,839.00
2023-05-14T09:58:25.209Z,840.00
2023-05-14T09:59:25.254Z,844.00
2023-05-14T10:00:25.541Z,845.00
2023-05-14T10:01:25.344Z,847.00
2023-05-14T10:02:25.530Z,846.00
2023-05-14T10:03:25.413Z,845.00
2023-05-14T10:04:25.479Z,845.00
2023-05-14T10:05:25.503Z,844.00
2023-05-14T10:06:26.043Z,844.00
2023-05-14T10:07:25.674Z,842.00
2023-05-14T10:08:25.618Z,842.00
2023-05-14T10:09:25.675Z,839.00
2023-05-14T10:10:25.859Z,837.00
2023-05-14T10:11:25.744Z,835.00
2023-05-14T10:12:25.769Z,836.00
2023-05-14T10:13:25.827Z,835.00
2023-05-14T10:14:25.859Z,837.00
2023-05-14T10:15:25.883Z,837.00
2023-05-14T10:16:25.943Z,837.00
2023-05-14T10:17:25.979Z,838.00
2023-05-14T10:18:26.027Z,838.00
2023-05-14T10:19:26.176Z,841.00
2023-05-14T10:20:26.305Z,839.00
2023-05-14T10:21:26.115Z,843.00
2023-05-14T10:22:26.147Z,844.00
2023-05-14T10:23:26.185Z,843.00
2023-05-14T10:24:26.220Z,841.00
2023-05-14T10:25:26.265Z,838.00
2023-05-14T10:26:26.315Z,837.00
2023-05-14T10:27:26.459Z,837.00
2023-05-14T10:28:26.378Z,837.00
2023-05-14T10:29:26.424Z,837.00
2023-05-14T10:30:26.708Z,838.00
2023-05-14T10:31:26.526Z,839.00
2023-05-14T10:32:26.658Z,837.00
2023-05-14T10:33:26.579Z,838.00
2023-05-14T10:34:26.622Z,840.00
2023-05-14T10:35:26.646Z,841.00
2023-05-14T10:36:26.679Z,841.00
2023-05-14T10:37:26.741Z,842.00
2023-05-14T10:38:26.753Z,841.00
2023-05-14T10:39:26.805Z,836.00
2023-05-14T10:40:27.047Z,837.00
2023-05-14T10:41:26.874Z,836.00
2023-05-14T10:42:26.916Z,836.00
2023-05-14T10:43:26.948Z,840.00
2023-05-14T10:44:27.053Z,835.00
2023-05-14T10:45:27.011Z,837.00
2023-05-14T10:46:27.142Z,839.00
2023-05-14T10:47:27.094Z,844.00
2023-05-14T10:48:27.120Z,846.00
2023-05-14T10:49:39.736Z,845.00
2023-05-14T10:50:28.150Z,842.00
2023-05-14T10:51:27.176Z,843.00
2023-05-14T10:52:27.141Z,842.00
2023-05-14T10:53:27.146Z,842.00
2023-05-14T10:54:27.147Z,841.00
2023-05-14T10:55:27.154Z,842.00
2023-05-14T10:56:27.148Z,843.00
2023-05-14T10:57:27.165Z,843.00
2023-05-14T10:58:27.154Z,841.00
2023-05-14T10:59:27.152Z,839.00
2023-05-14T11:00:27.153Z,838.00
2023-05-14T11:01:27.180Z,836.00
2023-05-14T11:02:27.174Z,835.00
2023-05-14T11:03:27.182Z,834.00
2023-05-14T11:04:27.180Z,834.00
2023-05-14T11:05:27.146Z,836.00
2023-05-14T11:06:27.160Z,832.00
2023-05-14T11:07:27.170Z,831.00
2023-05-14T11:08:29.329Z,830.00
2023-05-14T11:09:27.171Z,830.00
2023-05-14T11:10:27.291Z,833.00
2023-05-14T11:11:27.227Z,834.00
2023-05-14T11:12:27.264Z,834.00
2023-05-14T11:13:27.284Z,832.00
2023-05-14T11:14:27.314Z,831.00
2023-05-14T11:15:27.352Z,832.00
2023-05-14T11:16:27.430Z,832.00
2023-05-14T11:17:27.475Z,834.00
2023-05-14T11:18:27.431Z,836.00
2023-05-14T11:19:27.421Z,838.00
2023-05-14T11:20:27.592Z,841.00
2023-05-14T11:21:27.505Z,841.00
2023-05-14T11:22:27.495Z,838.00
2023-05-14T11:23:27.502Z,835.00
2023-05-14T11:24:27.531Z,833.00
2023-05-14T11:25:27.538Z,831.00
2023-05-14T11:26:27.662Z,832.00
2023-05-14T11:27:27.612Z,830.00
2023-05-14T11:28:28.611Z,829.00
2023-05-14T11:29:27.613Z,828.00
2023-05-14T11:30:27.638Z,826.00
2023-05-14T11:31:27.759Z,827.00
2023-05-14T11:32:27.709Z,827.00
2023-05-14T11:33:28.100Z,824.00
2023-05-14T11:34:27.709Z,823.00
2023-05-14T11:35:27.739Z,822.00
2023-05-14T11:36:27.803Z,826.00
2023-05-14T11:37:27.767Z,828.00
2023-05-14T11:38:27.771Z,826.00
2023-05-14T11:39:27.793Z,829.00
2023-05-14T11:40:27.804Z,830.00
2023-05-14T11:41:27.827Z,831.00
2023-05-14T11:42:27.838Z,831.00
2023-05-14T11:43:27.864Z,830.00
2023-05-14T11:44:27.876Z,829.00
2023-05-14T11:45:27.927Z,826.00
2023-05-14T11:46:27.951Z,827.00
2023-05-14T11:47:27.979Z,824.00
2023-05-14T11:48:27.920Z,826.00
2023-05-14T11:49:27.936Z,826.00
2023-05-14T11:50:27.964Z,826.00
2023-05-14T11:51:27.986Z,826.00
2023-05-14T11:52:27.988Z,825.00
2023-05-14T11:53:28.018Z,825.00
2023-05-14T11:54:28.584Z,826.00
2023-05-14T11:55:28.018Z,824.00
2023-05-14T11:56:28.029Z,821.00
2023-05-14T11:57:28.106Z,821.00
2023-05-14T11:58:28.065Z,821.00
2023-05-14T11:59:28.120Z,819.00
2023-05-14T12:00:28.076Z,822.00
2023-05-14T12:01:28.087Z,823.00
2023-05-14T12:02:28.187Z,822.00
2023-05-14T12:03:28.234Z,824.00
2023-05-14T12:04:28.158Z,819.00
2023-05-14T12:05:28.119Z,818.00
2023-05-14T12:06:28.129Z,813.00
2023-05-14T12:07:28.142Z,812.00
2023-05-14T12:08:28.148Z,816.00
2023-05-14T12:09:28.151Z,817.00
2023-05-14T12:10:28.152Z,819.00
2023-05-14T12:11:28.238Z,818.00
2023-05-14T12:12:28.176Z,821.00
2023-05-14T12:13:28.161Z,821.00
2023-05-14T12:14:28.204Z,819.00
2023-05-14T12:15:28.180Z,820.00
2023-05-14T12:16:28.236Z,817.00
2023-05-14T12:17:28.210Z,818.00
2023-05-14T12:18:29.213Z,818.00
2023-05-14T12:19:28.242Z,819.00
2023-05-14T12:20:28.181Z,818.00
2023-05-14T12:21:28.192Z,820.00
2023-05-14T12:22:28.197Z,821.00
2023-05-14T12:23:28.218Z,823.00
2023-05-14T12:24:28.239Z,821.00
2023-05-14T12:25:28.234Z,822.00
2023-05-14T12:26:28.242Z,822.00
2023-05-14T12:27:28.262Z,824.00
2023-05-14T12:28:28.282Z,824.00
2023-05-14T12:29:28.285Z,820.00
2023-05-14T12:30:28.383Z,821.00